Time,TemperatureF,DewpointF,PressureIn,WindDirection,WindDirectionDegrees,WindSpeedMPH,WindSpeedGustMPH,Humidity,HourlyPrecipIn,Conditions,Clouds,dailyrainin,SolarRadiationWatts/m^2,SoftwareType,DateUTC
2013-06-14 05:00:00,78.0,74.0,-100.00,WNW,290,1.0,-999.0,87,-99.99,,,-99.99,0.000000,,2013-06-14 10:00:00,
2013-06-14 05:53:00,78.0,74.0,-100.00,WNW,290,1.0,-999.0,87,-99.99,,,-99.99,0.000000,,2013-06-14 10:53:00,
2013-06-14 06:00:00,76.0,74.0,-100.00,ESE,112,1.0,-999.0,96,-99.99,,,-99.99,0.280000,,2013-06-14 11:00:00,
2013-06-14 06:52:00,76.0,74.0,-100.00,ESE,112,1.0,-999.0,96,-99.99,,,-99.99,0.280000,,2013-06-14 11:52:00,
2013-06-14 07:00:00,76.0,75.0,-100.00,WSW,250,0.0,-999.0,97,-99.99,,,-99.99,15.100000,,2013-06-14 12:00:00,
2013-06-14 07:52:00,76.0,75.0,-100.00,WSW,250,0.0,-999.0,97,-99.99,,,-99.99,15.100000,,2013-06-14 12:52:00,
2013-06-14 08:00:00,78.0,77.0,-100.00,North,0,0.0,-999.0,97,-99.99,,,-99.99,84.830002,,2013-06-14 13:00:00,
2013-06-14 08:53:00,78.0,77.0,-100.00,North,0,0.0,-999.0,97,-99.99,,,-99.99,84.830002,,2013-06-14 13:53:00,
2013-06-14 09:00:00,80.0,77.0,-100.00,NNW,329,0.0,-999.0,91,-99.99,,,-99.99,234.460007,,2013-06-14 14:00:00,
2013-06-14 09:52:00,80.0,77.0,-100.00,NNW,329,0.0,-999.0,91,-99.99,,,-99.99,234.460007,,2013-06-14 14:52:00,
2013-06-14 10:00:00,86.0,79.0,-100.00,NNW,334,1.0,-999.0,78,-99.99,,,-99.99,500.079987,,2013-06-14 15:00:00,
2013-06-14 10:53:00,86.0,79.0,-100.00,NNW,334,1.0,-999.0,78,-99.99,,,-99.99,500.079987,,2013-06-14 15:53:00,
2013-06-14 11:00:00,90.0,79.0,-100.00,NW,324,1.0,-999.0,70,-99.99,,,-99.99,691.599976,,2013-06-14 16:00:00,
2013-06-14 11:53:00,90.0,79.0,-100.00,NW,324,1.0,-999.0,70,-99.99,,,-99.99,691.599976,,2013-06-14 16:53:00,
2013-06-14 12:00:00,92.0,79.0,-100.00,North,354,1.0,-999.0,67,-99.99,,,-99.99,729.599976,,2013-06-14 17:00:00,
2013-06-14 12:53:00,92.0,79.0,-100.00,North,354,1.0,-999.0,67,-99.99,,,-99.99,729.599976,,2013-06-14 17:53:00,
2013-06-14 13:00:00,91.0,78.0,-100.00,NE,36,1.0,-999.0,66,-99.99,,,-99.99,787.549988,,2013-06-14 18:00:00,
2013-06-14 13:52:00,91.0,78.0,-100.00,NE,36,1.0,-999.0,66,-99.99,,,-99.99,787.549988,,2013-06-14 18:52:00,
2013-06-14 14:00:00,93.0,76.0,-100.00,North,1,1.0,-999.0,57,-99.99,,,-99.99,795.150024,,2013-06-14 19:00:00,
2013-06-14 14:53:00,93.0,76.0,-100.00,North,1,1.0,-999.0,57,-99.99,,,-99.99,795.150024,,2013-06-14 19:53:00,
2013-06-14 15:00:00,95.0,77.0,-100.00,NNE,20,1.0,-999.0,58,-99.99,,,-99.99,728.650024,,2013-06-14 20:00:00,
2013-06-14 15:53:00,95.0,77.0,-100.00,NNE,20,1.0,-999.0,58,-99.99,,,-99.99,728.650024,,2013-06-14 20:53:00,
2013-06-14 16:00:00,93.0,74.0,-100.00,NNE,20,1.0,-999.0,54,-99.99,,,-99.99,570.190002,,2013-06-14 21:00:00,
2013-06-14 16:52:00,93.0,74.0,-100.00,NNE,20,1.0,-999.0,54,-99.99,,,-99.99,570.190002,,2013-06-14 21:52:00,
2013-06-14 17:00:00,92.0,71.0,-100.00,NE,38,1.0,-999.0,51,-99.99,,,-99.99,556.979980,,2013-06-14 22:00:00,
2013-06-14 17:53:00,92.0,71.0,-100.00,NE,38,1.0,-999.0,51,-99.99,,,-99.99,556.979980,,2013-06-14 22:53:00,
2013-06-14 18:00:00,90.0,69.0,-100.00,North,11,1.0,-999.0,51,-99.99,,,-99.99,378.480011,,2013-06-14 23:00:00,
2013-06-14 18:52:00,90.0,69.0,-100.00,North,11,1.0,-999.0,51,-99.99,,,-99.99,378.480011,,2013-06-14 23:52:00,
2013-06-14 19:00:00,84.0,69.0,-100.00,NNE,29,0.0,-999.0,60,-99.99,,,-99.99,157.039993,,2013-06-15 00:00:00,
2013-06-14 19:53:00,84.0,69.0,-100.00,NNE,29,0.0,-999.0,60,-99.99,,,-99.99,157.039993,,2013-06-15 00:53:00,
2013-06-14 20:00:00,79.0,71.0,-100.00,ENE,77,0.0,-999.0,76,-99.99,,,-99.99,15.860000,,2013-06-15 01:00:00,
2013-06-14 20:54:00,79.0,71.0,-100.00,ENE,77,0.0,-999.0,76,-99.99,,,-99.99,15.860000,,2013-06-15 01:54:00,
2013-06-14 23:00:00,73.0,69.0,-100.00,NNE,26,0.0,-999.0,89,-99.99,,,-99.99,0.000000,,2013-06-15 04:00:00,
2013-06-14 23:54:00,73.0,69.0,-100.00,NNE,26,0.0,-999.0,89,-99.99,,,-99.99,0.000000,,2013-06-15 04:54:00,